Date,TemperatureHighF,TemperatureAvgF,TemperatureLowF,DewpointHighF,DewpointAvgF,DewpointLowF,HumidityHigh,HumidityAvg,HumidityLow,PressureMaxIn,PressureMinIn,WindSpeedMaxMPH,WindSpeedAvgMPH,GustSpeedMaxMPH,PrecipitationSumIn
2013-1-1,19.2,9.6,-13.5,14.8,3.9,-19.8,83,52,73,30.22,29.99,0,0,0,0.00
2013-1-2,21.9,15.7,12.5,15.6,11.1,8.8,86,82,75,30.00,29.92,29,0,29,0.00
2013-1-3,14.3,12.3,9.6,9.0,5.9,3.4,83,75,68,30.21,30.07,0,0,0,0.00
2013-1-4,32.1,21.8,12.2,19.7,14.0,5.7,84,73,58,30.09,29.98,0,0,0,0.00
2013-1-5,27.8,20.3,12.5,19.4,13.0,0.0,85,75,63,29.98,29.83,0,0,0,0.00
2013-1-6,24.6,14.3,7.3,14.6,8.6,2.9,86,78,65,30.18,29.98,0,0,0,0.00
2013-1-7,37.7,25.1,18.6,27.3,16.8,0.0,83,67,66,29.99,29.87,57,2,57,0.00
2013-1-8,37.2,27.0,14.7,28.3,11.8,0.0,87,53,80,29.95,29.75,0,0,0,0.00
2013-1-9,34.7,31.8,28.0,27.3,24.1,21.8,85,73,62,30.20,29.93,0,0,0,0.00
2013-1-10,41.5,28.1,0.0,29.8,19.1,0.0,90,71,53,30.22,29.72,0,0,0,0.18
2013-1-11,0.0,0.0,0.0,0.0,0.0,0.0,92,91,90,29.72,29.38,0,0,0,0.08
2013-1-12,9.6,1.9,0.0,10.6,2.2,-2.0,91,77,67,30.04,29.39,0,0,0,0.00
2013-1-13,11.4,4.6,0.8,3.2,-1.4,-4.2,80,76,68,30.19,30.00,0,0,0,0.00
2013-1-14,15.4,7.9,2.3,8.8,2.1,-3.7,83,77,67,30.35,30.19,0,0,0,0.00
2013-1-15,31.8,21.2,9.6,20.6,13.8,4.7,84,74,62,30.23,29.82,0,0,0,0.00
2013-1-16,39.5,26.1,10.5,33.1,20.5,3.5,87,80,68,30.18,29.66,0,0,0,0.00
2013-1-17,20.8,11.0,1.2,10.8,2.9,-4.9,78,67,57,30.34,30.17,0,0,0,0.00
2013-1-18,44.7,31.1,16.5,34.0,17.8,0.0,85,46,66,30.23,29.72,0,0,0,0.00
2013-1-19,40.8,24.4,1.7,32.1,17.7,-5.4,88,76,58,30.18,29.66,0,0,0,0.00
2013-1-20,10.9,3.6,-2.5,0.3,-4.3,-10.2,76,69,57,30.34,30.19,0,0,0,0.00
2013-1-21,-1.1,-5.7,-10.8,-10.3,-13.9,-18.6,73,67,60,30.28,30.21,0,0,0,0.00
2013-1-22,6.6,-1.6,-10.8,-1.4,-9.4,-16.6,77,69,60,30.33,30.18,0,0,0,0.00
2013-1-23,18.5,8.9,-4.3,10.0,-0.3,-15.1,82,66,55,30.52,30.09,0,0,0,0.00
2013-1-24,14.1,3.8,-5.6,3.5,-7.2,-15.5,64,60,51,30.58,30.13,0,0,0,0.00
2013-1-25,21.7,12.9,2.3,13.8,4.4,-4.1,75,69,58,30.24,29.92,0,0,0,0.00
2013-1-26,25.7,13.5,-2.5,13.4,4.0,-8.5,79,66,53,30.28,30.06,0,0,0,0.00
2013-1-27,32.7,30.7,24.9,29.8,23.6,13.4,90,75,59,30.06,29.77,0,0,0,0.02
2013-1-28,39.0,33.0,31.1,35.3,30.2,28.5,91,89,82,29.87,29.61,0,0,0,0.02
2013-1-29,36.6,32.4,28.0,32.7,28.9,22.6,92,87,80,29.71,29.50,0,0,0,0.02
2013-1-30,27.6,18.1,8.7,22.6,11.8,2.8,81,76,69,29.72,29.60,0,0,0,0.02
2013-1-31,8.6,0.9,-7.9,3.1,-6.1,-14.9,78,72,65,30.21,29.73,0,0,0,0.00
2013-2-1,10.0,0.4,-12.4,4.7,-7.5,-18.5,80,69,56,30.25,29.98,0,0,0,0.00
2013-2-2,21.3,9.7,2.3,9.6,2.6,-2.6,81,73,55,30.12,29.92,0,0,0,0.00
2013-2-3,18.1,11.8,3.7,8.6,4.9,-1.4,82,74,60,30.04,29.90,0,0,0,0.00
2013-2-4,28.2,12.6,-0.7,11.8,3.6,-6.1,84,68,46,30.01,29.74,0,0,0,0.00
2013-2-5,32.1,21.4,-1.4,26.6,15.6,-7.2,88,78,67,30.03,29.64,0,0,0,0.00
2013-2-6,32.1,17.7,-1.4,24.1,12.2,-7.0,86,79,72,30.07,29.88,0,0,0,0.00
2013-2-7,28.5,25.4,20.1,24.3,21.3,16.5,88,84,79,30.20,29.92,0,0,0,0.00
2013-2-8,30.0,24.5,22.2,20.5,18.3,16.5,83,77,65,30.32,30.18,0,0,0,0.00
2013-2-9,34.1,28.8,24.9,27.8,24.5,20.5,89,84,77,30.18,29.89,0,0,0,0.00
2013-2-10,35.4,31.7,28.2,32.7,28.9,24.5,91,89,86,29.89,29.25,0,0,0,0.16
2013-2-11,30.7,24.4,15.2,28.4,19.7,10.2,91,82,74,30.01,29.32,0,0,0,0.04
2013-2-12,38.6,25.4,13.2,27.2,18.8,8.2,86,76,62,30.01,29.78,0,0,0,0.02
2013-2-13,44.0,29.6,15.4,31.5,23.6,11.6,89,79,60,29.79,29.54,22,0,22,0.10
2013-2-14,33.4,26.7,12.0,30.3,20.2,4.2,90,77,58,30.14,29.55,0,0,0,0.02
2013-2-15,19.2,9.5,1.2,6.7,1.5,-3.6,83,70,57,30.24,30.14,0,0,0,0.00
2013-2-16,30.9,10.9,0.3,20.5,3.6,-4.4,89,73,54,30.21,30.05,0,0,0,0.00
2013-2-17,33.2,22.4,8.2,23.3,15.1,2.5,83,74,61,30.06,29.59,0,0,0,0.00
2013-2-18,34.5,22.9,4.4,30.3,17.0,-0.1,85,78,71,29.77,29.51,0,0,0,0.00
2013-2-19,6.0,2.3,-4.9,0.3,-5.1,-11.8,81,71,61,30.30,29.77,0,0,0,0.00
2013-2-20,20.8,5.6,-10.4,6.6,-3.7,-16.3,79,66,51,30.39,30.30,0,0,0,0.00
2013-2-21,23.5,14.4,3.7,11.5,5.9,-1.6,80,69,56,30.36,30.00,22,0,22,0.00
2013-2-22,39.7,24.3,18.5,25.3,18.2,11.7,86,78,56,30.00,29.83,0,0,0,0.06
2013-2-23,34.8,19.6,4.8,23.0,13.2,-1.1,86,77,59,29.93,29.82,0,0,0,0.02
2013-2-24,40.8,20.5,-0.5,25.5,12.4,-5.8,88,72,51,30.07,29.92,0,0,0,0.00
2013-2-25,48.0,30.9,16.7,32.3,22.2,11.1,86,71,49,30.07,30.00,0,0,0,0.00
2013-2-26,42.2,33.6,19.5,30.5,24.8,0.0,86,69,59,29.97,29.83,0,0,0,0.00
2013-2-27,28.7,7.4,0.0,28.0,23.6,0.0,82,69,53,29.99,29.82,57,2,57,0.00
2013-2-28,33.8,30.6,25.3,23.3,20.5,0.0,79,65,63,30.13,29.98,86,4,86,0.00
2013-3-1,37.7,30.0,18.6,21.6,17.1,10.4,71,59,51,30.29,30.25,0,0,0,0.00
2013-3-2,38.8,26.3,16.7,19.4,11.0,3.1,82,53,41,30.28,30.13,0,0,0,0.00
2013-3-3,33.9,24.9,15.6,15.2,11.2,6.0,69,56,41,30.13,29.94,0,0,0,0.00
2013-3-4,28.5,24.9,21.7,20.5,18.2,14.2,87,76,60,29.99,29.89,0,0,0,0.00
2013-3-5,37.5,27.0,20.8,26.8,21.5,16.1,88,80,62,30.25,29.93,0,0,0,0.06
2013-3-6,37.4,22.2,1.2,21.7,14.2,-4.9,83,72,52,30.36,30.24,0,0,0,0.02
2013-3-7,32.9,18.0,-0.7,20.1,10.4,-6.8,85,72,59,30.33,30.23,0,0,0,0.02
2013-3-8,43.1,29.4,16.5,29.7,22.7,12.7,87,77,58,30.27,30.05,0,0,0,0.00
2013-3-9,37.9,35.4,33.4,34.6,32.2,27.7,90,88,79,30.05,29.67,0,0,0,0.65
2013-3-10,37.4,33.3,28.7,31.6,29.2,25.3,91,85,76,29.90,29.73,0,0,0,0.06
2013-3-11,35.4,27.9,19.0,25.4,21.8,13.8,88,78,66,29.82,29.72,0,0,0,0.02
2013-3-12,32.3,24.7,17.4,20.8,16.7,11.5,83,72,59,30.15,29.80,0,0,0,0.02
2013-3-13,36.1,21.5,9.6,20.6,12.7,5.7,86,70,51,30.34,30.15,0,0,0,0.00
2013-3-14,50.1,32.0,22.8,32.5,23.3,16.6,88,71,48,30.21,29.98,0,0,0,0.00
2013-3-15,36.5,31.8,27.1,31.6,27.5,22.0,88,84,80,29.98,29.78,0,0,0,0.06
2013-3-16,27.3,22.2,18.1,24.2,18.1,14.0,88,84,70,30.08,29.84,0,0,0,0.02
2013-4-3,46.2,42.6,37.5,31.5,29.6,26.1,72,60,51,30.26,30.06,0,0,0,0.00
2013-4-4,52.3,44.3,30.3,36.4,29.4,22.0,75,57,43,30.13,30.02,0,0,0,0.00
2013-4-5,43.7,33.6,24.9,31.3,25.6,18.1,89,73,50,30.19,29.84,0,0,0,0.02
2013-4-6,59.5,43.1,35.2,46.9,35.8,29.3,88,76,62,29.84,29.47,0,0,0,0.08
2013-4-7,49.8,41.1,33.9,40.8,35.3,30.4,89,80,67,29.92,29.71,2,0,2,0.12
2013-4-8,55.0,44.5,39.2,45.8,40.0,36.3,91,85,69,29.99,29.64,0,0,0,0.12
2013-4-9,41.7,37.5,32.1,36.5,33.1,27.6,90,84,72,30.09,29.92,0,0,0,0.66
2013-4-10,38.1,33.4,28.5,30.7,27.5,24.2,89,80,61,30.13,29.84,0,0,0,0.14
2013-4-11,37.2,33.5,30.0,32.6,29.3,24.8,90,85,66,29.85,29.62,0,0,0,0.33
2013-4-12,39.9,32.8,27.3,32.3,28.1,24.8,90,83,72,29.81,29.63,0,0,0,0.06
2013-4-13,43.5,33.1,24.6,30.4,25.5,17.7,89,75,53,29.92,29.80,0,0,0,0.06
2013-4-14,36.1,32.7,30.2,33.4,28.6,24.1,90,85,75,29.90,29.42,0,0,0,0.33
2013-4-15,44.7,36.3,30.5,32.5,29.1,24.5,90,75,59,29.95,29.52,0,0,0,0.00
2013-4-16,45.8,37.6,31.6,30.9,28.0,26.0,84,69,54,30.26,29.95,0,0,0,0.00
2013-4-17,39.9,35.7,33.0,34.0,30.3,26.6,90,81,74,30.27,29.84,0,0,0,0.61
2013-4-18,34.8,32.8,30.7,32.1,30.2,28.4,91,90,89,29.87,29.47,0,0,0,0.08
2013-4-19,40.8,33.3,26.9,28.5,25.4,18.6,91,74,52,29.95,29.47,0,0,0,0.16
2013-4-20,50.7,35.0,18.3,28.7,19.7,13.1,86,57,33,30.25,29.95,0,0,0,0.13
2013-4-21,52.1,41.3,33.0,44.1,35.6,20.5,90,80,58,30.26,29.99,0,0,0,0.22
2013-4-22,41.5,35.9,31.8,36.2,32.3,29.1,91,87,73,30.16,30.05,0,0,0,0.08
2013-4-23,41.5,34.8,28.0,31.4,27.0,20.4,90,74,54,30.12,30.02,0,0,0,0.18
2013-4-24,50.1,36.8,22.1,34.6,28.1,17.2,89,72,52,30.04,29.88,0,0,0,0.00
2013-4-25,52.5,41.4,31.6,36.1,31.4,27.3,86,69,46,30.18,29.96,0,0,0,0.00
2013-4-26,72.6,57.5,42.9,50.3,41.7,32.1,72,57,36,30.11,29.95,0,0,0,0.00
2013-4-27,75.5,59.8,39.0,51.5,43.8,33.0,81,58,37,30.11,29.90,0,0,0,0.00
2013-4-28,81.1,63.2,49.6,54.3,48.8,43.1,80,62,36,29.90,29.64,0,0,0,0.09
2013-4-29,75.2,61.9,48.9,57.2,50.0,40.3,86,67,49,29.80,29.55,0,0,0,0.00
2013-4-30,73.4,64.0,55.4,60.6,48.0,32.3,85,58,32,29.95,29.44,0,0,0,0.00
2013-5-1,55.5,38.7,33.0,38.1,33.4,30.1,90,83,49,30.43,29.95,0,0,0,0.45
2013-5-2,49.4,38.6,32.7,32.7,29.8,26.6,90,72,49,30.48,30.35,0,0,0,0.26
2013-5-3,37.4,34.2,31.8,31.7,28.6,24.6,88,80,66,30.36,30.09,0,0,0,0.14
2013-5-4,55.7,41.8,32.5,45.3,36.6,29.3,90,83,67,30.13,30.04,0,0,0,0.02
2013-5-5,67.4,51.2,38.3,50.6,42.1,34.7,88,73,54,30.13,30.05,0,0,0,0.00
2013-5-6,82.9,60.8,42.6,54.8,47.6,39.3,91,65,36,30.09,29.99,0,0,0,0.00
2013-5-7,80.4,65.5,47.6,57.9,49.6,43.0,90,59,37,30.05,29.94,0,0,0,0.00
2013-5-8,82.2,65.1,54.3,57.2,51.7,46.1,87,64,38,29.99,29.91,0,0,0,0.17
2013-5-9,61.7,54.1,42.4,54.6,48.8,31.8,88,82,66,30.05,29.92,2,0,2,0.06
2013-5-10,76.2,52.7,36.3,39.2,33.6,28.1,73,51,26,30.07,29.87,0,0,0,0.00
2013-5-11,55.5,47.9,37.2,41.1,28.8,20.8,69,49,32,30.14,29.86,0,0,0,0.00
2013-5-12,63.6,45.4,30.0,31.1,24.1,17.4,76,46,23,30.19,30.06,0,0,0,0.00
2013-5-13,74.6,56.8,35.2,49.2,36.0,21.2,63,46,35,30.09,29.66,0,0,0,0.00
2013-5-14,97.8,75.4,50.7,60.7,49.0,36.1,75,43,18,29.69,29.46,0,0,0,0.00
2013-5-15,82.7,65.8,51.6,54.0,48.0,40.5,71,54,37,29.92,29.68,0,0,0,0.00
2013-5-16,85.6,70.2,52.1,54.6,47.0,37.7,68,46,28,29.91,29.82,0,0,0,0.00
2013-5-17,67.2,57.4,54.1,55.9,50.4,37.3,91,80,34,29.98,29.87,0,0,0,0.36
2013-5-18,83.1,66.4,54.6,68.0,59.2,51.4,91,79,56,30.00,29.77,0,0,0,0.58
2013-5-19,82.9,69.7,61.8,69.4,63.3,57.4,89,81,61,29.80,29.52,0,0,0,0.81
2013-5-20,73.9,66.0,56.8,63.5,59.0,52.5,91,79,61,29.61,29.50,0,0,0,0.45
2013-5-21,71.2,60.4,52.8,60.9,54.8,49.6,91,82,61,29.68,29.51,0,0,0,0.00
2013-5-22,52.7,50.0,47.1,49.5,47.1,44.6,91,90,86,29.95,29.66,0,0,0,0.33
2013-5-23,73.9,55.5,42.9,46.7,39.6,31.0,86,58,29,30.31,29.95,0,0,0,0.00
2013-5-24,70.7,60.8,38.1,48.5,43.4,29.1,83,54,42,30.35,30.14,0,0,0,0.16
2013-5-25,62.4,54.7,51.6,51.9,47.6,42.6,87,77,63,30.24,30.18,0,0,0,0.02
2013-5-26,56.1,52.7,48.5,49.4,45.0,41.1,82,75,65,30.19,30.00,0,0,0,0.00
2013-5-27,60.0,55.2,52.5,55.1,51.1,48.5,90,86,79,30.02,29.81,0,0,0,0.10
2013-5-28,62.7,56.3,52.1,57.9,53.1,49.5,92,89,83,29.82,29.70,0,0,0,0.06
2013-5-29,78.6,64.8,50.3,71.4,60.5,47.4,99,86,74,29.80,29.64,0,0,0,0.23
2013-5-30,81.1,69.6,62.7,67.8,62.8,58.8,91,80,60,29.67,29.52,0,0,0,0.10
2013-5-31,80.7,68.8,58.1,63.7,57.7,49.4,89,69,47,29.57,29.51,0,0,0,0.04
2013-6-1,79.3,60.3,50.7,63.6,52.6,42.9,90,76,57,29.92,29.55,0,0,0,0.02
2013-6-2,77.3,56.8,44.6,50.2,42.4,37.7,79,60,35,30.05,29.91,0,0,0,0.00
2013-6-3,76.8,60.8,40.8,59.0,45.6,36.5,91,61,38,30.05,29.89,0,0,0,0.00
2013-6-4,65.6,58.6,53.4,55.5,50.2,46.2,85,74,62,30.06,29.97,0,0,0,0.02
2013-6-5,75.0,58.7,52.8,63.1,53.4,48.5,90,83,63,30.03,29.91,0,0,0,0.02
2013-6-6,57.0,53.7,51.0,52.8,50.2,48.2,91,88,85,30.01,29.93,0,0,0,0.00
2013-6-7,78.9,59.1,51.9,58.2,51.4,48.3,91,77,47,30.03,29.89,0,0,0,0.00
2013-6-8,76.1,64.9,54.1,62.0,53.8,49.4,90,69,52,29.92,29.86,0,0,0,0.00
2013-6-9,72.5,61.5,55.9,64.1,56.8,52.7,91,85,72,29.89,29.74,0,0,0,0.59
2013-6-10,90.5,68.3,56.8,68.3,60.6,52.3,92,78,46,29.86,29.78,0,0,0,0.00
2013-6-11,87.0,70.0,54.6,71.6,63.2,50.5,92,80,58,29.89,29.78,0,0,0,0.02
2013-6-12,74.3,67.3,63.1,67.4,62.6,55.9,92,85,76,29.91,29.76,0,0,0,0.53
2013-6-13,91.2,70.2,55.4,62.7,55.4,48.9,81,61,37,30.08,29.90,0,0,0,0.00
2013-6-14,81.5,69.0,0.0,63.6,57.3,-12.3,83,67,53,30.06,29.86,0,0,0,0.02
2013-6-15,84.9,70.4,59.1,71.6,63.0,54.6,91,78,58,29.93,29.84,0,0,0,0.18
2013-6-16,87.8,70.7,53.4,69.4,55.4,50.2,92,62,33,29.93,29.85,0,0,0,0.00
2013-6-17,88.5,72.4,56.8,64.4,56.4,50.7,84,59,37,29.99,29.87,0,0,0,0.00
2013-6-18,88.8,69.5,55.2,63.6,56.8,49.1,82,65,41,30.07,29.98,0,0,0,0.00
2013-6-19,93.9,74.3,57.3,67.0,59.2,51.6,84,62,36,30.05,29.94,0,0,0,0.00
2013-6-20,96.6,82.0,68.1,71.1,64.7,58.2,76,57,41,30.00,29.87,0,0,0,0.00
2013-6-21,86.3,74.1,63.5,71.6,65.2,59.0,89,75,61,29.99,29.76,0,0,0,0.50
2013-6-22,87.9,70.6,0.0,73.9,63.8,0.0,91,79,62,30.01,29.83,0,0,0,0.63
2013-6-23,71.7,70.9,70.3,67.6,67.0,66.5,89,88,86,29.84,29.77,0,0,0,0.00
2013-6-24,71.2,68.0,66.3,64.7,63.1,61.8,87,84,80,29.84,29.79,0,0,0,0.00
2013-6-25,93.7,77.0,64.2,77.8,69.0,60.6,91,77,59,29.83,29.71,0,0,0,0.00
2013-6-26,90.1,78.1,68.3,78.7,70.3,60.6,93,78,56,29.83,29.66,0,0,0,0.00
2013-6-27,89.7,76.7,63.6,74.1,61.7,54.2,88,63,35,29.84,29.79,0,0,0,0.00
2013-6-28,80.4,70.8,60.9,63.6,59.4,53.1,88,68,52,29.82,29.76,0,0,0,0.02
2013-6-29,84.3,69.1,59.1,63.5,58.5,50.9,91,71,41,29.96,29.74,0,0,0,0.23
2013-6-30,87.8,68.2,50.5,59.3,52.8,44.9,86,61,36,30.10,29.96,0,0,0,0.00
2013-7-1,89.4,72.3,53.7,65.4,56.4,49.4,91,61,38,30.17,30.10,0,0,0,0.00
2013-7-2,93.7,73.3,56.4,63.3,55.7,49.6,78,57,35,30.14,30.04,0,0,0,0.00
2013-7-3,100.5,71.2,52.5,69.0,55.3,47.8,91,61,27,30.07,29.94,0,0,0,0.00
2013-7-4,95.7,76.9,61.1,66.8,59.4,53.3,82,58,33,29.97,29.87,0,0,0,0.00
2013-7-5,91.9,77.9,65.3,67.9,62.1,56.7,75,60,43,29.91,29.82,0,0,0,0.00
2013-7-6,95.9,81.4,69.8,72.0,65.0,60.2,74,59,43,29.89,29.81,2,0,2,0.00
2013-7-7,96.9,83.3,71.4,74.6,68.8,62.8,87,63,47,29.87,29.81,0,0,0,0.00
2013-7-8,98.9,79.9,65.8,73.9,69.0,62.8,92,71,43,29.98,29.87,0,0,0,0.00
2013-7-9,89.0,77.7,68.7,73.6,69.0,64.9,91,76,56,29.95,29.77,0,0,0,0.59
2013-7-10,86.1,71.5,58.4,64.7,58.1,52.6,87,65,42,30.05,29.91,0,0,0,0.00
2013-7-11,92.8,73.7,53.6,70.7,58.9,49.8,92,63,38,30.10,29.97,0,0,0,0.00
2013-7-12,91.9,77.4,65.1,67.0,61.6,56.2,77,59,42,30.02,29.91,0,0,0,0.00
2013-7-13,81.1,71.7,62.9,71.0,62.8,57.6,92,74,61,30.06,29.92,0,0,0,4.75
2013-7-14,90.3,76.7,66.9,70.9,65.7,60.2,86,70,51,30.18,30.05,0,0,0,0.00
2013-7-15,96.9,80.1,65.1,74.4,68.3,61.1,91,69,48,30.23,30.15,0,0,0,0.00
2013-7-16,102.3,84.3,71.9,78.8,72.8,68.1,92,70,45,30.21,30.15,0,0,0,0.00
2013-7-17,105.0,84.7,69.9,80.0,72.7,66.9,93,70,45,30.26,30.11,0,0,0,0.00
2013-7-18,98.7,84.8,73.2,76.4,72.5,68.6,87,68,47,30.12,29.79,0,0,0,0.00
2013-7-19,86.3,78.6,66.5,74.7,66.1,58.3,86,67,48,29.90,29.75,0,0,0,0.15
2013-7-20,91.2,73.4,61.1,68.9,62.4,56.8,89,70,46,29.95,29.87,0,0,0,0.00
2013-7-21,87.8,70.8,59.5,72.5,62.2,53.6,88,75,59,29.94,29.80,0,0,0,0.02
2013-7-22,88.8,75.6,64.0,76.2,66.1,56.1,93,74,51,29.85,29.69,0,0,0,0.00
2013-7-23,85.6,68.2,55.2,61.5,55.1,49.4,91,65,40,30.01,29.84,0,0,0,0.00
2013-7-24,91.9,67.1,53.9,66.9,56.8,48.7,85,71,43,30.07,29.97,0,0,0,0.00
2013-7-25,88.1,73.1,58.8,71.2,63.1,53.6,87,72,54,29.98,29.90,0,0,0,0.02
2013-7-26,72.5,64.8,56.3,63.9,56.1,46.6,93,74,57,30.06,29.90,0,0,0,0.00
2013-7-27,64.9,56.4,49.8,51.9,47.7,44.4,88,73,56,30.06,29.92,0,0,0,0.02
2013-7-28,79.3,59.7,45.6,57.7,49.6,41.4,88,71,47,30.06,29.94,0,0,0,0.00
2013-7-29,82.5,66.2,47.6,62.4,54.7,43.8,92,69,47,30.13,30.06,0,0,0,0.00
2013-7-30,80.2,67.5,60.6,68.2,60.8,55.4,89,79,66,30.10,30.04,0,0,0,0.00
2013-7-31,82.2,68.8,56.4,72.1,60.9,50.5,93,77,50,30.08,29.99,0,0,0,0.06
2013-8-1,90.6,69.1,48.9,66.4,56.7,45.3,93,68,45,30.04,29.86,0,0,0,0.00
2013-8-2,81.5,67.9,51.9,63.6,55.3,46.6,93,67,42,30.04,29.85,0,0,0,0.00
2013-8-3,84.3,65.7,47.6,68.0,52.5,44.3,94,66,38,30.18,30.03,0,0,0,0.00
2013-8-4,81.1,64.2,47.4,64.8,54.0,43.5,93,71,51,30.22,30.01,0,0,0,0.00
2013-8-5,87.6,68.8,57.7,72.0,62.5,52.9,93,81,59,30.02,29.80,0,0,0,0.59
2013-8-6,86.7,69.4,52.8,71.9,61.7,49.8,94,78,56,29.86,29.70,0,0,0,0.18
2013-8-7,81.1,65.9,52.3,61.8,56.2,47.3,93,73,43,30.03,29.79,0,0,0,0.00
2013-8-8,82.5,64.1,50.3,67.1,55.8,46.8,93,76,51,30.06,29.99,0,0,0,0.00
2013-8-9,75.9,64.7,52.8,65.0,54.5,47.6,93,72,49,30.13,30.00,0,0,0,0.00
2013-8-10,78.6,65.9,53.9,61.6,55.6,49.2,91,71,49,30.18,30.09,0,0,0,0.00
2013-8-11,87.9,69.7,61.3,70.3,61.8,55.2,90,77,54,30.10,30.00,0,0,0,0.00
2013-8-12,79.3,68.7,57.5,65.7,58.0,51.9,94,71,46,30.06,30.00,0,0,0,0.00
2013-8-13,79.5,64.9,49.6,62.9,51.9,44.0,93,66,41,30.19,30.06,0,0,0,0.00
2013-8-14,84.0,62.7,46.5,64.2,50.9,42.8,93,69,42,30.20,30.10,0,0,0,0.00
2013-8-15,84.9,65.5,48.9,64.5,53.9,44.3,93,70,42,30.14,30.08,0,0,0,0.00
2013-8-16,84.5,66.9,50.1,67.7,56.2,46.6,94,71,46,30.20,30.13,0,0,0,0.02
2013-8-17,84.0,67.6,52.1,66.7,56.0,47.8,93,69,44,30.21,30.11,0,0,0,0.00
2013-8-18,86.7,70.2,56.1,65.4,58.7,52.5,90,69,46,30.14,30.01,0,0,0,0.00
2013-8-19,89.7,74.0,61.5,72.1,64.4,56.3,85,73,54,30.04,29.92,0,0,0,0.00
2013-8-20,92.1,78.3,66.7,76.2,69.4,63.0,89,75,57,29.94,29.87,2,0,2,0.00
2013-8-21,88.5,77.6,70.8,77.7,71.2,67.1,91,81,66,30.00,29.86,0,0,0,0.18
2013-8-22,86.3,72.1,60.0,69.8,60.8,54.1,92,70,44,30.12,30.00,0,0,0,0.00
2013-8-23,88.1,72.7,56.8,71.7,63.0,51.3,86,73,55,30.14,30.05,0,0,0,0.00
2013-8-24,90.5,78.0,68.1,75.4,69.3,63.6,86,75,60,30.08,29.96,0,0,0,0.00
2013-8-25,94.8,84.2,75.0,78.3,73.3,68.8,83,71,57,30.04,29.96,0,0,0,0.00
2013-8-26,96.4,84.8,75.2,79.2,74.8,70.9,88,73,55,30.01,29.86,0,0,0,0.00
2013-8-27,98.7,85.0,71.9,79.2,74.3,67.8,89,72,53,29.93,29.82,0,0,0,0.00
2013-8-28,96.4,80.1,69.0,77.7,72.0,66.0,94,78,54,30.02,29.92,0,0,0,0.00
2013-8-29,96.4,82.4,73.2,79.1,72.8,68.3,94,75,49,30.01,29.86,0,0,0,0.00
2013-8-30,85.6,76.1,66.0,72.8,67.6,60.0,92,76,56,29.92,29.83,0,0,0,0.00
2013-8-31,91.2,74.6,60.9,73.5,65.9,58.1,93,76,53,29.91,29.74,0,0,0,0.09
2013-9-1,77.1,68.6,61.3,66.1,60.6,54.9,91,77,58,29.97,29.74,0,0,0,0.00
2013-9-2,67.6,56.7,43.7,54.8,49.9,39.7,91,79,63,30.08,29.96,0,0,0,0.02
2013-9-3,80.6,60.1,40.1,61.1,51.1,37.0,93,75,47,30.10,30.00,0,0,0,0.00
2013-9-4,91.0,72.4,55.9,72.6,62.8,52.0,93,74,52,30.13,30.01,0,0,0,0.00
2013-9-5,86.7,72.1,58.8,69.9,62.7,53.5,89,73,56,30.20,30.10,0,0,0,0.00
2013-9-6,91.2,77.2,67.6,72.1,66.8,63.5,92,73,47,30.10,29.88,0,0,0,0.04
2013-9-7,95.1,79.3,66.0,75.3,67.7,61.9,92,69,46,29.99,29.86,0,0,0,0.00
2013-9-8,84.2,71.3,64.0,70.0,63.9,59.9,88,78,61,30.04,29.89,0,0,0,0.00
2013-9-9,93.9,78.2,66.0,76.7,69.3,62.9,93,76,52,29.89,29.64,0,0,0,0.02
2013-9-10,86.0,73.5,63.6,73.9,64.9,59.6,93,76,54,29.99,29.77,0,0,0,0.00
2013-9-11,85.8,70.6,57.7,71.0,58.4,50.3,93,69,39,30.06,29.98,0,0,0,0.00
2013-9-12,76.2,62.6,48.3,56.9,49.4,39.8,91,64,41,30.21,30.05,0,0,0,0.00
2013-9-13,73.0,56.5,39.3,55.0,44.4,35.2,91,66,42,30.27,30.08,0,0,0,0.00
2013-9-14,78.4,59.7,46.2,52.9,48.5,41.2,90,70,41,30.08,29.86,0,0,0,0.18
2013-9-15,68.3,58.3,45.8,59.0,52.8,41.8,93,83,67,30.29,29.86,0,0,0,0.12
2013-9-16,69.2,53.0,39.9,52.8,44.0,36.3,92,73,48,30.38,30.23,0,0,0,0.00
2013-9-17,68.5,55.8,43.7,56.5,49.7,39.7,92,81,62,30.24,29.93,0,0,0,0.00
2013-9-18,78.2,68.4,58.8,70.4,64.8,56.5,94,89,75,29.94,29.71,0,0,0,0.05
2013-9-19,81.6,71.0,61.8,73.0,65.8,57.3,92,84,68,29.81,29.66,0,0,0,0.24
2013-9-20,65.4,57.4,48.5,57.3,51.1,44.5,92,80,62,29.92,29.79,0,0,0,0.00
2013-9-21,65.3,52.2,41.5,50.9,44.8,38.8,93,77,57,29.98,29.89,0,0,0,0.00
2013-9-22,76.1,59.1,44.4,58.0,50.4,40.8,92,75,52,29.95,29.84,0,0,0,0.00
2013-9-23,75.0,61.5,50.1,56.6,51.2,46.0,89,71,49,29.95,29.86,0,0,0,0.00
2013-9-24,78.0,61.1,48.7,58.9,51.4,44.7,92,73,47,29.96,29.89,0,0,0,0.00
2013-9-25,76.2,61.6,48.0,58.2,51.8,44.9,92,72,49,29.97,29.86,0,0,0,0.00
2013-9-26,82.5,67.2,53.6,63.1,56.6,49.5,87,70,50,29.92,29.83,0,0,0,0.00
2013-9-27,85.6,72.2,64.5,65.6,61.3,58.6,82,70,48,29.91,29.80,0,0,0,0.00
2013-9-28,68.7,58.9,43.1,62.7,53.0,38.9,91,81,72,29.94,29.65,0,0,0,0.14
2013-9-29,76.8,59.2,41.9,53.9,46.3,38.8,92,66,37,29.96,29.80,0,0,0,0.00
2013-9-30,80.2,66.3,55.9,56.6,50.9,45.9,74,59,43,29.81,29.61,0,0,0,0.00
2013-10-1,76.2,63.1,41.5,55.0,45.2,34.7,77,55,28,29.99,29.61,0,0,0,0.00
2013-10-2,78.2,59.5,39.0,53.0,43.4,34.0,86,60,31,30.04,29.81,0,0,0,0.25
2013-10-3,60.9,57.7,55.5,58.3,55.0,51.4,92,91,86,29.90,29.79,0,0,0,0.10
2013-10-4,57.9,56.3,54.6,55.6,54.1,52.3,94,93,91,29.95,29.80,0,0,0,0.39
2013-10-5,64.4,54.0,38.6,58.7,49.3,34.9,94,85,64,29.84,29.72,0,0,0,0.06
2013-10-6,58.8,47.0,39.3,53.0,43.8,36.0,93,89,73,29.84,29.68,0,0,0,0.06
2013-10-7,66.9,51.0,38.3,51.9,42.7,36.0,93,76,46,29.97,29.83,0,0,0,0.00
2013-10-8,78.0,61.8,48.3,53.9,46.8,40.9,81,60,39,29.97,29.83,0,0,0,0.00
2013-10-9,76.1,63.7,52.8,56.3,50.1,45.3,81,62,45,30.04,29.92,0,0,0,0.00
2013-10-10,79.7,62.7,51.6,58.2,49.7,43.9,77,64,41,30.03,29.87,0,0,0,0.00
2013-10-11,75.3,63.9,51.9,60.2,53.9,47.5,88,71,51,29.87,29.64,0,0,0,0.12
2013-10-12,59.1,50.1,36.5,52.1,40.9,30.5,89,72,50,30.16,29.71,0,0,0,0.00
2013-10-13,61.7,45.2,30.7,44.8,34.8,26.7,90,69,43,30.41,30.16,0,0,0,0.00
2013-10-14,55.5,47.7,38.8,45.0,38.3,30.8,87,70,57,30.37,29.92,0,0,0,0.35
2013-10-15,53.4,49.3,45.6,51.1,46.5,43.5,92,90,87,29.93,29.67,0,0,0,0.53
2013-10-16,54.3,43.8,33.0,43.9,38.8,28.4,93,83,63,29.94,29.79,0,0,0,0.02
2013-10-17,63.1,45.0,33.6,47.9,38.9,29.7,91,81,51,29.87,29.74,0,0,0,0.02
2013-10-18,54.6,42.4,34.3,42.0,34.5,26.3,92,76,46,29.96,29.83,0,0,0,0.04
2013-10-19,48.3,37.3,28.0,41.1,32.0,22.8,90,81,66,29.83,29.67,0,0,0,0.02
2013-10-20,53.2,37.1,25.3,42.3,32.3,21.1,88,83,65,29.86,29.59,0,0,0,0.02
2013-10-21,38.8,32.8,22.8,32.9,23.5,16.8,86,69,54,29.94,29.85,0,0,0,0.00
2013-10-22,42.9,31.2,19.5,34.4,25.0,14.9,89,78,67,30.00,29.92,0,0,0,0.00
2013-10-23,39.3,33.4,26.9,31.0,25.2,20.4,87,72,56,30.07,29.97,0,0,0,0.00
2013-10-24,44.4,35.1,25.8,31.7,25.4,20.2,81,68,54,30.28,30.07,0,0,0,0.00
2013-10-25,58.2,40.9,22.1,41.2,31.2,17.7,88,70,52,30.29,29.78,0,0,0,0.00
2013-10-26,48.9,41.8,27.6,39.9,30.5,20.0,79,65,52,30.07,29.78,0,0,0,0.00
2013-10-27,60.4,41.6,26.2,39.1,30.1,19.4,84,66,43,30.08,29.78,0,0,0,0.00
2013-10-28,44.2,36.7,30.3,30.3,25.9,20.6,81,66,50,30.37,30.08,0,0,0,0.00
2013-10-29,44.9,37.6,30.3,34.2,29.0,20.6,84,71,64,30.35,30.04,0,0,0,0.02
2013-10-30,51.2,45.5,38.1,49.0,42.9,33.6,93,91,84,30.04,29.65,0,0,0,0.06
2013-10-31,51.0,41.9,38.8,49.0,39.5,36.1,93,91,87,29.65,29.40,0,0,0,0.02
2013-11-1,52.3,42.6,34.8,40.2,36.8,28.7,92,80,60,29.84,29.41,0,0,0,0.00
2013-11-2,49.6,38.4,30.0,36.6,30.9,24.0,89,75,53,30.06,29.83,0,0,0,0.00
2013-11-3,54.6,43.6,32.5,38.3,32.9,28.2,85,67,47,30.08,29.86,0,0,0,0.00
2013-11-4,48.5,42.6,30.0,43.5,35.7,26.3,86,77,62,30.12,29.82,0,0,0,0.08
2013-11-5,45.5,34.5,24.2,40.3,29.7,20.9,92,83,67,30.20,29.96,0,0,0,0.05
2013-11-6,36.3,31.8,26.0,31.6,27.3,20.9,91,83,71,30.14,29.96,0,0,0,0.18
2013-11-7,35.6,29.3,22.6,30.8,25.6,18.7,90,86,77,30.19,30.12,0,0,0,0.00
2013-11-8,44.9,35.2,21.7,39.9,28.1,18.1,90,76,56,30.16,29.60,0,0,0,0.00
2013-11-9,44.7,40.0,32.7,40.2,32.8,25.5,84,76,62,30.18,29.61,0,0,0,0.00
2013-11-10,44.4,37.4,29.3,35.7,29.4,22.7,82,73,63,30.29,30.04,0,0,0,0.00
2013-11-11,36.8,24.3,10.5,31.1,15.2,3.1,86,68,55,30.65,30.06,0,0,0,0.00
2013-11-12,29.3,17.1,5.3,15.1,9.0,0.0,83,71,54,30.71,30.40,0,0,0,0.00
2013-11-13,50.1,35.7,20.3,36.0,25.0,13.2,74,65,53,30.40,29.86,0,0,0,0.00
2013-11-14,50.7,37.6,28.0,39.5,30.8,23.4,85,77,65,29.86,29.74,0,0,0,0.00
2013-11-15,57.2,42.2,26.9,42.9,34.8,22.8,89,76,56,29.82,29.62,0,0,0,0.00
2013-11-16,48.7,43.8,40.8,46.5,40.0,33.8,92,86,74,29.63,29.25,0,0,0,0.08
2013-11-17,42.8,41.8,40.6,38.2,37.8,37.3,89,86,83,29.41,29.39,0,0,0,0.00
2013-11-18,21.3,18.9,17.4,15.5,13.7,12.7,82,80,78,30.21,30.18,0,0,0,0.00
2013-11-19,47.1,34.4,17.7,31.6,25.4,13.1,86,71,54,30.21,29.89,0,0,0,0.00
2013-11-20,43.5,41.7,36.6,33.2,29.1,25.7,87,62,51,30.00,29.86,0,0,0,0.00
2013-11-21,37.0,30.0,23.0,33.8,26.7,17.5,91,87,78,30.44,30.00,0,0,0,0.00
2013-11-22,32.3,22.0,9.3,17.7,13.4,4.4,85,70,53,30.54,30.39,0,0,0,0.00
2013-11-23,18.3,9.8,0.5,7.7,1.3,-6.3,81,69,52,30.76,30.54,0,0,0,0.00
2013-11-24,30.7,17.6,0.6,16.8,8.3,-5.3,80,67,55,30.63,29.96,0,0,0,0.00
2013-11-25,41.1,32.9,25.8,30.2,23.3,15.9,80,68,60,30.04,29.89,0,0,0,0.00
2013-11-26,30.0,20.6,11.3,21.3,8.4,2.8,71,59,49,30.31,30.03,0,0,0,0.00
2013-11-27,25.5,16.6,2.4,17.2,7.0,-3.7,83,66,54,30.32,30.02,0,0,0,0.00
2013-11-28,30.7,20.7,7.1,16.6,11.2,1.1,76,66,55,30.44,30.01,0,0,0,0.00
2013-11-29,37.4,23.3,6.4,22.4,14.8,0.4,81,71,51,30.44,30.08,0,0,0,0.00
2013-11-30,40.8,31.1,20.8,29.9,23.7,15.8,86,74,64,30.12,29.99,0,0,0,0.00
2013-12-1,37.2,27.2,15.2,29.3,21.4,10.7,88,79,68,30.13,29.88,0,0,0,0.00
2013-12-2,40.2,33.8,28.5,33.0,29.6,23.7,91,85,75,29.88,29.55,0,0,0,0.10
2013-12-3,35.2,33.8,31.8,33.0,31.6,29.8,92,92,90,29.74,29.54,0,0,0,0.06
2013-12-4,32.9,27.8,11.3,30.9,25.5,7.1,93,91,84,29.72,29.44,0,0,0,0.00
2013-12-5,11.1,5.1,-2.0,7.1,-0.1,-7.1,84,79,70,30.29,29.70,0,0,0,0.00
2013-12-6,4.6,-3.2,-8.3,-3.3,-8.9,-13.1,81,76,69,30.56,30.28,0,0,0,0.00
2013-12-7,6.4,-5.1,-14.2,-2.5,-11.6,-19.7,81,73,63,30.63,30.47,0,0,0,0.00
2013-12-8,15.6,8.3,-2.3,9.6,3.3,-8.1,83,80,75,30.48,29.97,0,0,0,0.00
2013-12-9,10.5,0.1,-7.4,6.6,-5.8,-14.9,85,76,66,30.06,29.81,0,0,0,0.00
2013-12-10,15.0,8.8,3.5,10.8,2.6,-2.8,83,76,65,30.20,29.71,0,0,0,0.00
2013-12-11,8.4,-2.5,-9.5,2.1,-10.2,-17.5,76,69,61,30.48,30.20,0,0,0,0.00
2013-12-12,24.6,13.4,1.4,13.9,6.5,-5.3,82,74,62,30.23,30.07,0,0,0,0.00
2013-12-13,18.1,14.0,11.3,10.8,8.3,5.9,82,78,71,30.19,30.05,0,0,0,0.00
2013-12-14,19.9,10.4,-0.7,11.9,4.8,-6.9,83,78,68,30.19,30.02,0,0,0,0.00
2013-12-15,8.4,2.5,-2.0,-1.7,-5.4,-7.7,77,69,61,30.08,30.02,0,0,0,0.00
2013-12-16,21.9,11.4,1.7,17.8,5.3,-6.1,85,76,69,30.05,29.87,0,0,0,0.00
2013-12-17,30.7,22.3,6.0,25.9,15.7,0.4,87,76,62,30.06,29.85,0,0,0,0.00
2013-12-18,41.3,24.8,5.9,30.0,18.1,0.4,85,76,63,30.02,29.61,0,0,0,0.06
2013-12-19,27.1,19.3,16.8,22.6,13.6,10.1,85,78,67,30.00,29.75,0,0,0,0.00
2013-12-20,21.9,18.1,16.5,15.1,12.8,11.6,83,80,74,29.95,29.80,0,0,0,0.00
2013-12-21,24.6,19.3,15.4,18.2,14.0,11.0,84,80,72,29.93,29.79,0,0,0,0.00
2013-12-22,20.8,12.9,0.1,15.6,8.0,-4.5,84,80,75,30.18,29.88,0,0,0,0.00
2013-12-23,1.2,-2.9,-8.1,-3.6,-9.7,-14.7,80,72,64,30.43,30.18,0,0,0,0.00
2013-12-24,11.4,-0.2,-16.0,5.0,-7.7,-22.3,80,71,53,30.41,30.06,0,0,0,0.00
2013-12-25,30.9,17.4,9.6,25.5,12.1,4.7,86,80,65,30.09,29.99,0,0,0,0.00
2013-12-26,34.8,24.6,11.4,28.1,19.1,6.9,89,80,70,30.12,30.01,0,0,0,0.00
2013-12-27,42.0,29.4,10.0,32.2,24.1,5.2,90,81,66,30.11,29.87,0,0,0,0.04
2013-12-28,47.6,32.7,21.9,34.5,27.0,18.3,90,80,58,29.94,29.61,0,0,0,0.00
2013-12-29,21.9,0.2,-16.9,18.3,-8.0,-24.4,86,68,55,30.24,29.93,0,0,0,0.00
2013-12-30,5.9,-5.7,-18.5,-1.2,-12.3,-25.8,77,72,68,30.22,30.08,0,0,0,0.00
2013-12-31,5.1,-5.7,-12.2,-2.5,-12.1,-19.1,79,73,66,30.31,30.12,0,0,0,0.00
2014-1-1,5.1,-1.6,-7.9,-4.8,-9.4,-14.1,74,69,63,30.39,30.28,0,0,0,0.00
2014-1-2,5.7,-3.9,-15.8,-5.6,-12.8,-24.0,74,65,55,30.41,30.29,0,0,0,0.00